Time;durP1;ratioP1;P1;durP2;ratioP2;P2;SDS_P1;SDS_P2;PMS_P1;PMS_P2;Temp;Humidity;BMP_temperature;BMP_pressure;BME280_temperature;BME280_humidity;BME280_pressure;Samples;Min_cycle;Max_cycle;Signal;HPM_P1;HPM_P2
2022/12/26 00:00:10;;;;;;;200.45;187.63;;;;;;;8.48;100.00;100856.22;10577800;28;20092;-69
2022/12/26 00:05:12;;;;;;;190.93;178.73;;;;;;;8.50;100.00;100862.22;10577777;28;20051;-70
2022/12/26 00:10:14;;;;;;;229.25;214.75;;;;;;;8.52;100.00;100856.94;10582332;28;20043;-70
2022/12/26 00:15:17;;;;;;;186.38;174.00;;;;;;;8.54;100.00;100867.34;10583558;28;20406;-70
2022/12/26 00:20:19;;;;;;;182.23;169.43;;;;;;;8.53;100.00;100874.31;10585956;28;20093;-70
2022/12/26 00:25:20;;;;;;;190.30;177.13;;;;;;;8.52;100.00;100879.53;10585510;28;20105;-71
2022/12/26 00:30:24;;;;;;;178.13;166.32;;;;;;;8.50;100.00;100879.56;10584586;28;20048;-72
2022/12/26 00:35:26;;;;;;;1999.90;999.90;;;;;;;8.50;100.00;100895.19;10584810;28;20055;-71
2022/12/26 00:40:27;;;;;;;223.50;208.95;;;;;;;8.48;100.00;100897.84;10584798;28;20055;-71
2022/12/26 00:45:30;;;;;;;1552.15;798.75;;;;;;;8.50;100.00;100885.63;10582261;28;20119;-71
2022/12/26 00:50:32;;;;;;;1999.90;999.90;;;;;;;8.47;100.00;100901.34;10585362;28;20048;-70
2022/12/26 00:55:34;;;;;;;1999.90;999.90;;;;;;;8.46;100.00;100909.19;10585277;28;20104;-71
2022/12/26 01:00:37;;;;;;;1114.88;608.15;;;;;;;8.44;100.00;100900.56;10584132;28;20469;-69
2022/12/26 01:05:41;;;;;;;1999.90;999.90;;;;;;;8.44;100.00;100911.84;10584005;28;20050;-69
2022/12/26 01:10:45;;;;;;;1999.90;999.90;;;;;;;8.41;100.00;100901.53;10583611;28;20413;-72
2022/12/26 01:15:53;;;;;;;1999.90;999.90;;;;;;;8.40;100.00;100920.63;10581854;28;20059;-69
2022/12/26 01:20:59;;;;;;;1999.90;999.90;;;;;;;8.38;100.00;100932.81;10582266;28;20101;-68
2022/12/26 01:26:02;;;;;;;1999.90;999.90;;;;;;;8.36;100.00;100919.03;10583198;28;20062;-69
2022/12/26 01:31:06;;;;;;;1999.90;999.90;;;;;;;8.34;100.00;100916.47;10583025;28;20074;-71
2022/12/26 01:36:08;;;;;;;1999.90;999.90;;;;;;;8.32;100.00;100922.63;10582902;28;20355;-69
2022/12/26 01:41:19;;;;;;;1999.90;999.90;;;;;;;8.28;100.00;100913.22;10582714;28;20391;-70
2022/12/26 01:46:29;;;;;;;1999.90;999.90;;;;;;;8.27;100.00;100922.78;10579868;28;20073;-70
2022/12/26 01:51:38;;;;;;;1999.90;999.90;;;;;;;8.24;100.00;100913.31;10582111;28;20078;-73
2022/12/26 01:56:44;;;;;;;1999.90;999.90;;;;;;;8.18;100.00;100925.66;10581976;28;20457;-71
2022/12/26 02:01:52;;;;;;;1999.90;999.90;;;;;;;8.12;100.00;100911.09;10582354;28;20487;-71
2022/12/26 02:06:55;;;;;;;1999.90;999.90;;;;;;;8.01;100.00;100921.84;10581371;28;20115;-72
2022/12/26 02:12:02;;;;;;;;;;;;;;;8.01;100.00;100928.78;10581950;28;20043;-70
2022/12/26 02:17:07;;;;;;;1999.90;999.90;;;;;;;8.10;100.00;100923.28;10578680;28;19923;-73
2022/12/26 02:22:50;;;;;;;1999.90;999.90;;;;;;;8.10;100.00;100931.94;10580937;28;20051;-69
2022/12/26 02:28:26;;;;;;;765.45;498.88;;;;;;;8.11;100.00;100925.00;10580633;28;20051;-70
2022/12/26 02:33:47;;;;;;;697.80;435.75;;;;;;;8.11;100.00;100914.63;10580244;28;20555;-70
2022/12/26 02:39:14;;;;;;;1999.90;999.90;;;;;;;8.17;100.00;100926.53;10580784;28;20097;-70
2022/12/26 03:17:20;;;;;;;1999.90;999.90;;;;;;;8.05;100.00;100951.19;10576445;28;20047;-71
2022/12/26 03:22:30;;;;;;;1999.90;999.90;;;;;;;8.13;100.00;100938.81;10578580;28;20739;-75
2022/12/26 03:27:32;;;;;;;1999.90;999.90;;;;;;;8.17;100.00;100935.22;10578878;28;20048;-71
2022/12/26 03:32:43;;;;;;;1999.90;999.90;;;;;;;8.20;100.00;100929.91;10578320;28;20403;-71
2022/12/26 03:37:56;;;;;;;672.55;410.20;;;;;;;8.18;100.00;100916.09;10578470;28;20055;-74
2022/12/26 04:53:35;;;;;;;750.90;487.73;;;;;;;7.82;100.00;100924.13;10576624;28;20410;-70
2022/12/26 04:58:38;;;;;;;1589.38;834.53;;;;;;;7.80;100.00;100923.34;10583086;28;20384;-70
2022/12/26 05:14:20;;;;;;;1146.57;637.85;;;;;;;7.72;100.00;100940.00;10583716;28;20065;-72
2022/12/26 05:30:03;;;;;;;1127.82;620.00;;;;;;;7.64;100.00;100952.34;10583006;28;20073;-69
2022/12/26 05:35:06;;;;;;;251.07;236.45;;;;;;;7.61;100.00;100942.03;10583360;28;20055;-68
2022/12/26 05:40:09;;;;;;;256.23;240.48;;;;;;;7.55;100.00;100929.22;10582666;28;20051;-66
2022/12/26 05:45:12;;;;;;;250.80;236.07;;;;;;;7.51;100.00;100923.28;10579971;28;20445;-71
2022/12/26 05:50:14;;;;;;;273.27;258.13;;;;;;;7.44;100.00;100912.22;10582158;28;20077;-69
2022/12/26 05:55:16;;;;;;;250.23;236.00;;;;;;;7.37;100.00;100905.50;10582342;28;20151;-70
2022/12/26 06:00:19;;;;;;;286.48;270.13;;;;;;;7.34;100.00;100924.59;10581896;28;20104;-69
2022/12/26 06:05:22;;;;;;;689.00;428.33;;;;;;;7.36;100.00;100927.16;10581498;28;20097;-70
2022/12/26 06:10:25;;;;;;;331.42;311.60;;;;;;;7.42;100.00;100926.97;10581065;28;20048;-69
2022/12/26 06:15:28;;;;;;;275.92;257.50;;;;;;;7.51;100.00;100946.66;10578959;28;20146;-68
2022/12/26 06:20:30;;;;;;;187.70;176.57;;;;;;;7.64;100.00;100957.56;10581078;28;20112;-70
2022/12/26 06:25:32;;;;;;;369.15;342.75;;;;;;;7.81;100.00;100962.28;10580871;28;20044;-69
2022/12/26 06:30:35;;;;;;;376.65;352.77;;;;;;;7.85;100.00;100965.63;10580575;28;20529;-72
2022/12/26 06:35:36;;;;;;;1999.90;999.90;;;;;;;7.91;100.00;100978.44;10580993;28;20420;-70
2022/12/26 06:40:40;;;;;;;1604.45;847.22;;;;;;;7.96;100.00;100986.94;10580234;28;20040;-70
2022/12/26 06:45:43;;;;;;;449.00;423.90;;;;;;;7.93;100.00;100988.75;10577540;28;20043;-73
2022/12/26 06:50:44;;;;;;;888.67;616.17;;;;;;;7.88;100.00;100975.94;10580119;28;20048;-71
2022/12/26 06:55:46;;;;;;;1184.13;672.70;;;;;;;7.81;100.00;100961.41;10579493;28;20225;-66
2022/12/26 07:00:49;;;;;;;471.08;438.73;;;;;;;7.92;100.00;100976.69;10579856;28;20054;-72
2022/12/26 07:05:51;;;;;;;1999.90;999.90;;;;;;;7.72;100.00;100970.31;10579126;28;20541;-72
2022/12/26 07:10:53;;;;;;;232.27;219.70;;;;;;;7.69;100.00;100968.66;10579126;28;20078;-67
2022/12/26 07:15:59;;;;;;;426.20;396.67;;;;;;;7.68;100.00;100963.50;10576435;28;20097;-72
2022/12/26 07:21:05;;;;;;;99.90;94.47;;;;;;;7.55;100.00;100968.19;10578358;28;20060;-70
2022/12/26 07:26:07;;;;;;;220.65;206.15;;;;;;;7.66;100.00;100976.53;10578585;28;20131;-70
2022/12/26 07:31:16;;;;;;;333.92;308.83;;;;;;;7.65;100.00;100968.78;10578858;28;20140;-68
2022/12/26 07:36:19;;;;;;;150.70;142.48;;;;;;;7.67;100.00;100973.03;10578239;28;20552;-69
2022/12/26 07:46:42;;;;;;;151.52;143.68;;;;;;;7.72;100.00;100981.56;10575828;28;20039;-69
2022/12/26 07:51:44;;;;;;;287.30;268.98;;;;;;;7.64;100.00;100987.84;10577789;28;20460;-68
2022/12/26 07:56:46;;;;;;;104.45;98.88;;;;;;;7.62;100.00;100989.66;10578400;28;20097;-69
2022/12/26 08:01:49;;;;;;;281.80;261.25;;;;;;;7.64;100.00;100993.06;10577733;28;20054;-68
2022/12/26 08:06:51;;;;;;;153.30;145.23;;;;;;;7.67;100.00;100998.16;10577654;28;20052;-69
2022/12/26 08:11:53;;;;;;;254.63;238.50;;;;;;;7.60;100.00;100998.31;10577616;28;20089;-70
2022/12/26 08:16:56;;;;;;;125.55;118.97;;;;;;;7.68;100.00;100995.53;10574390;28;20047;-69
2022/12/26 08:21:58;;;;;;;251.82;235.82;;;;;;;7.73;100.00;100996.25;10576981;28;20055;-67
2022/12/26 08:26:59;;;;;;;109.35;102.95;;;;;;;7.88;100.00;100991.53;10577254;28;20047;-69
2022/12/26 08:32:05;;;;;;;210.63;196.75;;;;;;;7.97;100.00;100998.19;10582776;28;20498;-68
2022/12/26 08:37:06;;;;;;;160.60;150.73;;;;;;;8.02;100.00;100998.06;10585075;28;20122;-66
2022/12/26 08:42:09;;;;;;;283.35;260.17;;;;;;;8.14;100.00;101020.25;10584821;28;20103;-66
2022/12/26 08:47:13;;;;;;;416.23;389.52;;;;;;;8.24;100.00;101025.13;10582290;28;20056;-68
2022/12/26 08:52:15;;;;;;;329.35;310.05;;;;;;;8.36;100.00;101018.69;10585164;28;20089;-68
2022/12/26 08:57:16;;;;;;;348.08;325.92;;;;;;;8.55;100.00;101020.75;10584693;28;20048;-69
2022/12/26 09:02:21;;;;;;;350.67;327.58;;;;;;;8.61;100.00;101027.53;10584092;28;20101;-72
2022/12/26 09:07:23;;;;;;;433.83;393.02;;;;;;;8.68;100.00;101029.03;10584265;28;20100;-67
2022/12/26 09:12:26;;;;;;;771.83;497.50;;;;;;;8.83;100.00;101029.47;10583991;28;20105;-68
2022/12/26 09:17:29;;;;;;;389.65;364.23;;;;;;;9.00;100.00;101024.53;10581281;28;20392;-67
2022/12/26 09:27:52;;;;;;;456.60;360.25;;;;;;;9.18;100.00;101022.25;10583757;28;20118;-68
2022/12/26 09:32:55;;;;;;;404.65;375.27;;;;;;;9.26;100.00;101028.03;10583030;28;20048;-66
2022/12/26 09:37:57;;;;;;;536.10;490.73;;;;;;;9.20;100.00;101048.25;10583099;28;20415;-69
2022/12/26 09:43:17;;;;;;;445.55;344.77;;;;;;;9.18;100.00;101048.28;10581944;28;20039;-76
2022/12/26 09:48:31;;;;;;;815.45;540.05;;;;;;;9.14;100.00;101042.31;10579768;28;20097;-69
2022/12/26 09:53:40;;;;;;;367.15;331.65;;;;;;;9.07;100.00;101061.63;10582060;28;20449;-71
2022/12/26 09:58:49;;;;;;;1999.90;999.90;;;;;;;9.09;100.00;101075.47;10581923;28;20052;-67
2022/12/26 10:03:56;;;;;;;879.00;605.85;;;;;;;9.11;100.00;101078.03;10582201;28;20060;-69
2022/12/26 10:09:18;;;;;;;1999.90;999.90;;;;;;;9.05;100.00;101079.06;10581537;28;20047;-74
2022/12/26 10:14:38;;;;;;;1122.22;608.80;;;;;;;9.09;100.00;101085.03;10581246;28;20460;-68
2022/12/26 10:20:00;;;;;;;1238.13;721.22;;;;;;;9.11;100.00;101088.44;10578275;28;20568;-68
2022/12/26 10:25:09;;;;;;;1999.90;999.90;;;;;;;9.12;100.00;101091.00;10580671;28;20104;-70
2022/12/26 10:30:20;;;;;;;865.03;593.75;;;;;;;9.19;100.00;101088.19;10581487;28;20062;-67
2022/12/26 10:35:32;;;;;;;1557.85;804.65;;;;;;;9.19;100.00;101081.22;10580584;28;20074;-69
2022/12/26 10:40:40;;;;;;;259.55;239.90;;;;;;;9.14;100.00;101094.38;10580003;28;20077;-69
2022/12/26 10:45:50;;;;;;;1598.25;838.85;;;;;;;8.24;100.00;101142.13;10577788;28;20112;-66
2022/12/26 10:50:53;;;;;;;1161.72;648.75;;;;;;;7.47;100.00;101153.63;10579775;28;20691;-70
2022/12/26 10:55:55;;;;;;;1197.70;672.15;;;;;;;7.28;100.00;101167.94;10580182;28;20096;-64
2022/12/26 11:01:31;;;;;;;1133.38;625.47;;;;;;;7.25;100.00;101178.41;10579430;28;20043;-64
2022/12/26 11:06:39;;;;;;;702.40;441.98;;;;;;;7.24;100.00;101197.44;10579412;28;20055;-66
2022/12/26 11:11:47;;;;;;;286.85;271.30;;;;;;;7.28;100.00;101205.13;10578875;28;20082;-66
2022/12/26 11:16:49;;;;;;;686.58;426.48;;;;;;;7.37;100.00;101219.66;10576741;28;20112;-66
2022/12/26 11:21:52;;;;;;;1167.75;653.53;;;;;;;7.40;100.00;101223.94;10578568;28;20134;-66
2022/12/26 11:27:23;;;;;;;356.95;331.20;;;;;;;7.08;100.00;101231.53;10578840;28;20062;-71
2022/12/26 11:32:30;;;;;;;453.20;421.30;;;;;;;6.83;100.00;101219.09;10578190;28;20044;-67
2022/12/26 11:37:42;;;;;;;724.55;462.50;;;;;;;6.83;100.00;101229.47;10578701;28;20061;-67
2022/12/26 11:42:51;;;;;;;473.80;431.52;;;;;;;6.75;100.00;101229.63;10578366;28;20047;-67
2022/12/26 11:47:56;;;;;;;481.30;440.55;;;;;;;6.78;100.00;101231.31;10575620;28;20070;-67
2022/12/26 11:53:09;;;;;;;456.20;423.95;;;;;;;6.69;100.00;101233.19;10577824;28;20043;-66
2022/12/26 11:58:22;;;;;;;357.23;334.40;;;;;;;6.82;100.00;101249.34;10578442;28;20096;-65
2022/12/26 12:03:32;;;;;;;234.85;222.82;;;;;;;7.11;100.00;101248.81;10578171;28;20134;-67
2022/12/26 12:08:46;;;;;;;369.90;340.50;;;;;;;6.86;100.00;101260.53;10586432;28;20058;-66
2022/12/26 12:14:03;;;;;;;369.40;342.88;;;;;;;6.85;100.00;101258.84;10586006;28;20380;-65
2022/12/26 12:19:34;;;;;;;216.18;204.27;;;;;;;6.78;100.00;101259.84;10583431;28;20495;-66
2022/12/26 12:25:00;;;;;;;412.40;386.60;;;;;;;6.64;100.00;101250.56;10585566;28;20286;-70
2022/12/26 12:30:16;;;;;;;309.55;289.13;;;;;;;6.57;100.00;101249.00;10585798;28;20494;-66
2022/12/26 12:35:34;;;;;;;305.95;269.13;;;;;;;6.44;100.00;101238.84;10585443;28;20078;-72
2022/12/26 12:40:51;;;;;;;296.55;277.40;;;;;;;6.37;100.00;101252.78;10585251;28;20097;-67
2022/12/26 12:46:08;;;;;;;435.48;407.17;;;;;;;6.36;100.00;101256.28;10582491;28;20116;-68
2022/12/26 12:51:27;;;;;;;362.23;337.27;;;;;;;6.25;100.00;101268.56;10584719;28;20097;-67
2022/12/26 12:56:45;;;;;;;503.48;460.80;;;;;;;6.18;100.00;101278.19;10584880;28;20088;-66
2022/12/26 13:01:55;;;;;;;286.90;272.20;;;;;;;6.12;100.00;101289.50;10584287;28;20062;-67
2022/12/26 13:07:05;;;;;;;343.42;324.85;;;;;;;6.08;100.00;101279.22;10584342;28;20611;-67
2022/12/26 13:12:17;;;;;;;258.15;243.45;;;;;;;6.00;100.00;101284.50;10583750;28;20054;-68
2022/12/26 13:17:27;;;;;;;353.60;330.25;;;;;;;6.11;100.00;101287.81;10580258;28;20400;-70
2022/12/26 13:28:08;;;;;;;393.02;366.77;;;;;;;6.00;100.00;101290.56;10582733;28;20352;-67
2022/12/26 13:33:15;;;;;;;386.48;354.40;;;;;;;5.91;100.00;101285.50;10582703;28;20125;-66
2022/12/26 13:38:17;;;;;;;382.65;356.77;;;;;;;5.80;100.00;101290.84;10582954;28;20061;-66
2022/12/26 13:48:59;;;;;;;204.20;193.95;;;;;;;5.86;100.00;101301.13;10579822;28;20053;-66
2022/12/26 13:54:11;;;;;;;216.80;203.63;;;;;;;5.88;100.00;101312.31;10582124;28;20085;-67
2022/12/26 13:59:23;;;;;;;138.85;132.18;;;;;;;6.10;100.00;101306.84;10582023;28;20127;-66
2022/12/26 14:04:51;;;;;;;198.18;186.45;;;;;;;6.45;100.00;101312.31;10582044;28;20058;-67
2022/12/26 14:10:04;;;;;;;455.00;390.40;;;;;;;5.99;100.00;101314.72;10581981;28;20058;-68
2022/12/26 14:15:31;;;;;;;427.10;392.83;;;;;;;5.67;100.00;101318.66;10580473;28;20075;-68
2022/12/26 14:20:44;;;;;;;265.38;251.68;;;;;;;5.44;100.00;101344.88;10580945;28;20051;-65
2022/12/26 14:25:59;;;;;;;1999.90;999.90;;;;;;;5.23;100.00;101350.28;10580516;28;20062;-65
2022/12/26 14:31:20;;;;;;;241.77;227.52;;;;;;;5.11;100.00;101361.66;10580699;28;20107;-66
2022/12/26 14:36:39;;;;;;;363.42;335.70;;;;;;;5.06;100.00;101370.34;10580538;28;20069;-66
2022/12/26 14:47:43;;;;;;;503.30;450.73;;;;;;;4.81;100.00;101374.03;10577559;28;20042;-68
2022/12/26 14:52:45;;;;;;;19.98;18.38;;;;;;;4.69;100.00;101379.31;10579473;28;20079;-67
2022/12/26 14:57:49;;;;;;;220.07;184.32;;;;;;;4.70;100.00;101392.25;10579632;28;20509;-67
2022/12/26 15:03:51;;;;;;;17.10;15.88;;;;;;;4.56;100.00;101414.75;10579422;28;20160;-68
2022/12/26 15:09:15;;;;;;;177.95;165.85;;;;;;;4.50;100.00;101436.34;10449216;28;20545;-67
2022/12/26 15:15:06;;;;;;;17.90;16.13;;;;;;;4.40;100.00;101450.19;10556392;28;20587;-68
2022/12/26 15:20:57;;;;;;;155.55;101.18;;;;;;;4.38;100.00;101464.00;10577451;28;20112;-66
2022/12/26 15:26:50;;;;;;;154.90;144.38;;;;;;;4.18;100.00;101471.00;10578777;28;20061;-67
2022/12/26 15:32:03;;;;;;;;;;;;;;;4.03;100.00;101471.97;10579085;28;20060;-67
2022/12/26 15:37:23;;;;;;;373.25;287.00;;;;;;;3.90;100.00;101489.22;10578688;28;19943;-67
2022/12/26 15:42:44;;;;;;;88.07;82.95;;;;;;;3.73;100.00;101490.16;10577485;28;20180;-67
2022/12/26 15:48:02;;;;;;;30.70;29.17;;;;;;;3.57;100.00;101505.69;10575573;28;20534;-68
2022/12/26 15:53:26;;;;;;;168.38;154.48;;;;;;;3.47;100.00;101514.31;10577749;28;20142;-68
2022/12/26 15:59:03;;;;;;;458.80;405.70;;;;;;;3.32;100.00;101530.69;10578136;28;20055;-67
2022/12/26 16:04:13;;;;;;;40.05;37.75;;;;;;;3.25;100.00;101534.97;10577897;28;20506;-67
2022/12/26 16:09:39;;;;;;;336.67;302.05;;;;;;;3.13;100.00;101538.41;10577788;28;20043;-67
2022/12/26 16:14:43;;;;;;;44.15;42.03;;;;;;;3.12;100.00;101538.41;10577665;28;20074;-66
2022/12/26 16:19:47;;;;;;;54.80;52.20;;;;;;;2.99;100.00;101543.56;10575068;28;20051;-66
2022/12/26 16:24:53;;;;;;;68.45;65.05;;;;;;;2.92;100.00;101562.47;10577585;28;20128;-66
2022/12/26 16:29:59;;;;;;;85.63;81.47;;;;;;;2.85;100.00;101576.22;10577161;28;20051;-68
2022/12/26 16:35:01;;;;;;;225.63;212.15;;;;;;;2.75;100.00;101591.66;10576990;28;20084;-67
2022/12/26 16:40:20;;;;;;;69.13;65.65;;;;;;;2.68;100.00;101595.09;10577192;28;20526;-66
2022/12/26 16:45:24;;;;;;;73.10;69.25;;;;;;;2.63;100.00;101594.22;10575170;28;20061;-66
2022/12/26 16:50:31;;;;;;;158.25;150.32;;;;;;;2.53;100.00;101596.75;10578031;28;20104;-66
2022/12/26 16:55:43;;;;;;;94.05;89.18;;;;;;;2.37;100.00;101590.69;10584270;28;20419;-66
2022/12/26 17:00:48;;;;;;;;;;;;;;;2.40;100.00;101602.72;10584765;28;20065;-67
2022/12/26 17:05:50;;;;;;;58.88;55.78;;;;;;;2.30;100.00;101610.41;10584270;28;19999;-66
2022/12/26 17:10:53;;;;;;;109.82;104.40;;;;;;;2.27;100.00;101607.84;10584065;28;20114;-67
2022/12/26 17:16:00;;;;;;;109.50;103.32;;;;;;;2.20;100.00;101618.97;10581338;28;20079;-69
2022/12/26 17:21:19;;;;;;;100.93;96.30;;;;;;;2.14;100.00;101617.22;10583169;28;20149;-67
2022/12/26 17:26:29;;;;;;;110.10;104.57;;;;;;;2.13;100.00;101635.22;10583697;28;20060;-67
2022/12/26 17:31:37;;;;;;;6.72;5.32;;;;;;;2.12;100.00;101643.81;10582993;28;20057;-67
2022/12/26 17:36:39;;;;;;;5.40;4.85;;;;;;;1.98;100.00;101639.41;10582800;28;20142;-66
2022/12/26 17:41:51;;;;;;;5.80;4.80;;;;;;;1.96;100.00;101648.88;10582317;28;20560;-66
2022/12/26 17:46:54;;;;;;;;;;;;;;;1.91;100.00;101632.50;10580710;28;20113;-67
2022/12/26 17:51:56;;;;;;;4.88;4.53;;;;;;;1.82;100.00;101638.47;10582074;28;19933;-66
2022/12/26 17:56:59;;;;;;;4.83;4.47;;;;;;;1.75;100.00;101658.13;10582074;28;20081;-66
2022/12/26 18:02:01;;;;;;;11.35;4.28;;;;;;;1.73;100.00;101665.00;10581132;28;20305;-66
2022/12/26 18:07:03;;;;;;;9.60;8.47;;;;;;;1.65;100.00;101671.81;10581775;28;20399;-66
2022/12/26 18:12:06;;;;;;;8.18;4.13;;;;;;;1.71;100.00;101674.41;10581507;28;20052;-67
2022/12/26 18:17:13;;;;;;;7.70;4.97;;;;;;;1.78;100.00;101689.06;10578707;28;20136;-66
2022/12/26 18:22:18;;;;;;;5.40;4.45;;;;;;;1.75;100.00;101690.75;10580873;28;20088;-66
2022/12/26 18:27:29;;;;;;;10.88;5.13;;;;;;;1.87;100.00;101702.84;10581089;28;20056;-67
2022/12/26 18:32:33;;;;;;;5.45;4.97;;;;;;;1.76;100.00;101706.22;10580824;28;20118;-67
2022/12/26 18:37:36;;;;;;;6.22;5.63;;;;;;;1.78;100.00;101707.06;10580378;28;20117;-67
2022/12/26 18:42:39;;;;;;;6.28;5.68;;;;;;;1.75;100.00;101717.34;10580056;28;20120;-67
2022/12/26 18:47:41;;;;;;;7.50;5.38;;;;;;;1.76;100.00;101736.22;10577751;28;20065;-66
2022/12/26 18:52:42;;;;;;;12.50;5.27;;;;;;;1.69;100.00;101740.47;10579652;28;20145;-66
2022/12/26 18:57:45;;;;;;;7.25;5.05;;;;;;;1.70;100.00;101743.88;10579496;28;20707;-66
2022/12/26 19:02:48;;;;;;;11.98;9.55;;;;;;;1.63;100.00;101751.56;10579368;28;20115;-67
2022/12/26 19:07:50;;;;;;;5.05;4.57;;;;;;;1.63;100.00;101755.81;10579440;28;20114;-66
2022/12/26 19:12:53;;;;;;;5.88;4.35;;;;;;;1.57;100.00;101760.94;10579248;28;20072;-66
2022/12/26 19:17:55;;;;;;;4.85;4.55;;;;;;;1.48;100.00;101772.88;10575473;28;20106;-66
2022/12/26 19:22:57;;;;;;;12.83;4.80;;;;;;;1.57;100.00;101772.06;10578703;28;20062;-66
2022/12/26 19:28:01;;;;;;;;;;;;;;;1.71;100.00;101764.47;10579327;28;20494;-66
2022/12/26 19:33:04;;;;;;;5.22;4.75;;;;;;;1.78;100.00;101766.28;10578579;28;19960;-66
2022/12/26 19:38:05;;;;;;;5.78;4.78;;;;;;;1.90;100.00;101774.94;10578500;28;20437;-68
2022/12/26 19:43:09;;;;;;;11.70;4.77;;;;;;;2.01;100.00;101778.50;10578339;28;20464;-67
2022/12/26 19:48:11;;;;;;;6.80;5.13;;;;;;;2.02;100.00;101780.19;10576285;28;20311;-66
2022/12/26 19:53:13;;;;;;;30.23;27.23;;;;;;;2.14;100.00;101797.50;10578067;28;20071;-69
2022/12/26 19:58:16;;;;;;;7.32;5.25;;;;;;;2.11;100.00;101804.31;10578107;28;20105;-68
2022/12/26 20:03:18;;;;;;;31.92;29.95;;;;;;;2.11;100.00;101809.47;10577678;28;20082;-69
2022/12/26 20:08:19;;;;;;;33.67;30.27;;;;;;;2.22;100.00;101805.25;10577736;28;20056;-68
2022/12/26 20:13:23;;;;;;;12.38;7.40;;;;;;;2.24;100.00;101813.88;10577767;28;20097;-68
2022/12/26 20:18:24;;;;;;;8.35;7.65;;;;;;;2.25;100.00;101802.72;10575071;28;20144;-67
2022/12/26 20:23:26;;;;;;;29.50;26.87;;;;;;;2.23;100.00;101804.44;10577710;28;20591;-67
2022/12/26 20:28:29;;;;;;;5.70;4.90;;;;;;;2.14;100.00;101799.19;10583549;28;20093;-68
2022/12/26 20:33:33;;;;;;;17.65;16.33;;;;;;;2.06;100.00;101805.13;10585702;28;20496;-68
2022/12/26 20:38:35;;;;;;;56.30;51.65;;;;;;;2.12;100.00;101816.34;10585764;28;20062;-69
2022/12/26 20:43:39;;;;;;;12.20;10.73;;;;;;;2.12;100.00;101818.94;10584876;28;20406;-68
2022/12/26 20:48:42;;;;;;;10.85;5.50;;;;;;;2.08;100.00;101824.91;10582514;28;20059;-67
2022/12/26 20:53:44;;;;;;;;;;;;;;;1.99;100.00;101823.94;10584593;28;20079;-67
2022/12/26 20:58:48;;;;;;;5.67;5.17;;;;;;;2.00;100.00;101830.84;10584068;28;19937;-66
2022/12/26 21:03:53;;;;;;;5.50;5.20;;;;;;;1.96;100.00;101835.94;10583880;28;20061;-67
2022/12/26 21:08:58;;;;;;;15.68;5.63;;;;;;;1.87;100.00;101832.44;10584071;28;20061;-68
2022/12/26 21:14:04;;;;;;;14.43;12.73;;;;;;;1.78;100.00;101852.94;10583768;28;20084;-67
2022/12/26 21:19:07;;;;;;;6.43;5.60;;;;;;;1.84;100.00;101862.44;10581090;28;20503;-67
2022/12/26 21:24:13;;;;;;;173.40;112.88;;;;;;;1.86;100.00;101860.72;10583721;28;20057;-66
2022/12/26 21:29:19;;;;;;;9.25;7.97;;;;;;;1.89;100.00;101860.78;10582904;28;20122;-67
2022/12/26 21:34:24;;;;;;;10.38;5.80;;;;;;;1.86;100.00;101856.47;10582897;28;20149;-68
2022/12/26 21:39:26;;;;;;;96.35;76.95;;;;;;;1.95;100.00;101860.81;10581629;28;20060;-68
2022/12/26 21:44:29;;;;;;;13.27;10.63;;;;;;;1.88;100.00;101869.34;10582910;28;20500;-69
2022/12/26 21:49:30;;;;;;;7.40;6.65;;;;;;;1.89;100.00;101876.22;10579998;28;20063;-66
2022/12/26 21:59:56;;;;;;;7.15;6.03;;;;;;;1.79;100.00;101890.69;10582049;28;20062;-67
2022/12/26 22:04:58;;;;;;;10.77;7.75;;;;;;;1.78;100.00;101899.28;10581854;28;20113;-69
2022/12/26 22:09:59;;;;;;;9.77;6.63;;;;;;;1.79;100.00;101912.13;10581818;28;20676;-68
2022/12/26 22:15:02;;;;;;;7.28;6.60;;;;;;;1.75;100.00;101910.38;10581292;28;20149;-68
2022/12/26 22:20:06;;;;;;;6.57;5.95;;;;;;;1.74;100.00;101923.25;10579066;28;20092;-68
2022/12/26 22:25:09;;;;;;;7.55;6.28;;;;;;;1.63;100.00;101920.53;10581123;28;20058;-67
2022/12/26 22:30:13;;;;;;;21.48;19.85;;;;;;;1.65;100.00;101934.28;10581097;28;20513;-69
2022/12/26 22:35:15;;;;;;;13.43;5.50;;;;;;;1.64;100.00;101930.84;10580509;28;20089;-69
2022/12/26 22:40:17;;;;;;;6.18;5.65;;;;;;;1.60;100.00;101943.63;10580086;28;20061;-68
2022/12/26 22:45:20;;;;;;;24.63;21.27;;;;;;;1.80;100.00;101942.19;10579804;28;20519;-68
2022/12/26 22:50:21;;;;;;;37.20;34.03;;;;;;;1.79;100.00;101948.16;10579155;28;20637;-67
2022/12/26 22:55:23;;;;;;;14.75;6.28;;;;;;;1.87;100.00;101950.84;10579596;28;20541;-68
2022/12/26 23:00:26;;;;;;;7.53;6.87;;;;;;;1.87;100.00;101957.69;10580121;28;20065;-67
2022/12/26 23:05:29;;;;;;;6.63;5.80;;;;;;;1.79;100.00;101958.47;10579475;28;20393;-66
2022/12/26 23:10:33;;;;;;;21.65;19.05;;;;;;;1.86;100.00;101963.72;10579884;28;20447;-67
2022/12/26 23:15:53;;;;;;;61.47;55.95;;;;;;;1.79;100.00;101963.63;10576540;28;20168;-69
2022/12/26 23:26:28;;;;;;;9.60;6.90;;;;;;;1.83;100.00;101969.69;10499541;28;20535;-67
2022/12/26 23:31:31;;;;;;;6.67;6.07;;;;;;;1.74;100.00;101975.56;10578587;28;20508;-67
2022/12/26 23:36:33;;;;;;;41.95;38.85;;;;;;;1.66;100.00;101969.47;10578480;28;20753;-69
2022/12/26 23:41:34;;;;;;;9.03;7.70;;;;;;;1.63;100.00;101966.84;10578374;28;20057;-68
2022/12/26 23:46:39;;;;;;;7.47;6.38;;;;;;;1.69;100.00;101977.22;10575577;28;20317;-67
2022/12/26 23:51:43;;;;;;;6.07;5.47;;;;;;;1.71;100.00;101970.38;10578252;28;20102;-66
2022/12/26 23:56:44;;;;;;;60.70;55.42;;;;;;;1.75;100.00;101977.28;10578129;28;20084;-68
